Terminal Aerodrome Forecast
Issued by NWS

Home | Current Version | Previous Version | Text Only | Print | Product List | Glossary On
Versions: 1 2 3 4 5 6 7 8 9 10 11 12 13 14 15 16 17 18 19
000
FTUS43 KICT 190520
TAFHUT
TAF
KHUT 190520Z 1906/2006 VRB06KT P6SM SCT030 BKN080
      TEMPO 1910/1914 4SM BR
     FM191600 31010KT P6SM SCT100
     FM192100 32020G30KT 6SM -SHRA OVC035
     FM200200 33010KT P6SM SCT060=

USA.gov is the U.S. government's official web portal to all federal, state and local government web resources and services.